createdAt,value
2018-01-30T00:01:03.830Z,8.63
2018-01-30T00:02:09.567Z,8.64
2018-01-30T00:03:15.328Z,8.68
2018-01-30T00:04:20.477Z,8.68
2018-01-30T00:05:26.212Z,8.70
2018-01-30T00:06:31.922Z,8.70
2018-01-30T00:07:37.336Z,8.69
2018-01-30T00:08:43.879Z,8.67
2018-01-30T00:09:50.385Z,8.69
2018-01-30T00:10:56.432Z,8.71
2018-01-30T00:12:02.168Z,8.67
2018-01-30T00:13:07.888Z,8.69
2018-01-30T00:14:13.651Z,8.68
2018-01-30T00:15:19.363Z,8.70
2018-01-30T00:16:25.008Z,8.66
2018-01-30T00:17:31.603Z,8.68
2018-01-30T00:18:37.328Z,8.69
2018-01-30T00:19:43.284Z,8.68
2018-01-30T00:20:48.995Z,8.65
2018-01-30T00:21:54.838Z,8.67
2018-01-30T00:23:01.621Z,8.64
2018-01-30T00:24:07.355Z,8.67
2018-01-30T00:25:13.099Z,8.65
2018-01-30T00:26:18.807Z,8.68
2018-01-30T00:27:25.312Z,8.67
2018-01-30T00:28:31.044Z,8.62
2018-01-30T00:29:36.779Z,8.58
2018-01-30T00:30:42.541Z,8.52
2018-01-30T00:31:48.276Z,8.41
2018-01-30T00:32:54.002Z,8.38
2018-01-30T00:33:59.721Z,8.33
2018-01-30T00:35:06.222Z,8.29
2018-01-30T00:36:11.992Z,8.22
2018-01-30T00:37:17.836Z,8.26
2018-01-30T00:38:23.549Z,8.18
2018-01-30T00:39:29.296Z,8.13
2018-01-30T00:40:35.040Z,8.03
2018-01-30T00:41:40.840Z,7.97
2018-01-30T00:42:47.336Z,7.95
2018-01-30T00:43:53.079Z,7.90
2018-01-30T00:44:58.796Z,7.87
2018-01-30T00:46:04.530Z,7.86
2018-01-30T00:47:10.277Z,7.81
2018-01-30T00:48:16.006Z,7.78
2018-01-30T00:49:22.507Z,7.76
2018-01-30T00:50:28.234Z,7.69
2018-01-30T00:51:33.951Z,7.65
2018-01-30T00:52:39.800Z,7.65
2018-01-30T00:53:45.586Z,7.60
2018-01-30T00:54:51.296Z,7.60
2018-01-30T00:55:57.030Z,7.58
2018-01-30T00:57:02.763Z,7.56
2018-01-30T00:58:08.506Z,7.52
2018-01-30T00:59:14.225Z,7.49
2018-01-30T01:00:20.699Z,7.48
2018-01-30T01:01:26.403Z,7.44
2018-01-30T01:02:32.172Z,7.43
2018-01-30T01:03:37.772Z,7.43
2018-01-30T01:04:43.171Z,7.41
2018-01-30T01:05:48.912Z,7.38
2018-01-30T01:06:54.656Z,7.31
2018-01-30T01:08:01.152Z,7.29
2018-01-30T01:09:06.246Z,7.27
2018-01-30T01:10:11.961Z,7.22
2018-01-30T01:11:17.681Z,7.22
2018-01-30T01:12:23.841Z,7.20
2018-01-30T01:13:30.346Z,7.18
2018-01-30T01:14:36.093Z,7.17
2018-01-30T01:15:40.933Z,7.17
2018-01-30T01:16:46.667Z,7.16
2018-01-30T01:17:52.408Z,7.14
2018-01-30T01:18:58.152Z,7.17
2018-01-30T01:20:04.421Z,7.21
2018-01-30T01:21:10.179Z,7.23
2018-01-30T01:22:15.776Z,7.22
2018-01-30T01:23:21.488Z,7.22
2018-01-30T01:24:27.223Z,7.23
2018-01-30T01:25:32.995Z,7.23
2018-01-30T01:26:38.777Z,7.25
2018-01-30T01:27:45.259Z,7.28
2018-01-30T01:28:50.974Z,7.32
2018-01-30T01:29:57.456Z,7.35
2018-01-30T01:31:03.215Z,7.35
2018-01-30T01:32:08.998Z,7.38
2018-01-30T01:33:14.909Z,7.37
2018-01-30T01:34:20.624Z,7.39
2018-01-30T01:35:26.404Z,7.34
2018-01-30T01:36:32.158Z,7.34
2018-01-30T01:37:37.880Z,7.35
2018-01-30T01:38:43.676Z,7.37
2018-01-30T01:39:50.175Z,7.42
2018-01-30T01:40:55.902Z,7.44
2018-01-30T01:42:01.646Z,7.47
2018-01-30T01:43:07.378Z,7.49
2018-01-30T01:44:13.124Z,7.52
2018-01-30T01:45:18.871Z,7.54
2018-01-30T01:46:24.601Z,7.57
2018-01-30T01:47:30.368Z,7.60
2018-01-30T01:48:36.100Z,7.61
2018-01-30T01:49:41.843Z,7.61
2018-01-30T01:50:47.556Z,7.55
2018-01-30T01:51:54.037Z,7.51
2018-01-30T01:52:59.790Z,7.49
2018-01-30T01:54:05.503Z,7.48
2018-01-30T01:55:11.648Z,7.42
2018-01-30T01:56:18.146Z,7.45
2018-01-30T01:57:23.861Z,7.45
2018-01-30T01:58:30.364Z,7.45
2018-01-30T01:59:36.194Z,7.44
2018-01-30T02:00:41.906Z,7.40
2018-01-30T02:01:48.381Z,7.36
2018-01-30T02:02:54.118Z,7.34
2018-01-30T02:03:59.861Z,7.31
2018-01-30T02:05:05.270Z,7.24
2018-01-30T02:06:11.749Z,7.19
2018-01-30T02:07:17.465Z,7.19
2018-01-30T02:08:23.944Z,7.20
2018-01-30T02:09:29.687Z,7.22
2018-01-30T02:10:35.400Z,7.26
2018-01-30T02:11:41.917Z,7.29
2018-01-30T02:12:47.648Z,7.29
2018-01-30T02:13:53.052Z,7.31
2018-01-30T02:14:58.792Z,7.33
2018-01-30T02:16:04.507Z,7.29
2018-01-30T02:17:10.272Z,7.29
2018-01-30T02:18:16.763Z,7.29
2018-01-30T02:19:22.485Z,7.27
2018-01-30T02:20:28.238Z,7.23
2018-01-30T02:21:33.948Z,7.23
2018-01-30T02:22:40.487Z,7.20
2018-01-30T02:23:46.256Z,7.14
2018-01-30T02:24:52.738Z,7.09
2018-01-30T02:25:58.501Z,7.07
2018-01-30T02:27:04.270Z,7.06
2018-01-30T02:28:09.985Z,7.05
2018-01-30T02:29:15.701Z,7.00
2018-01-30T02:30:21.759Z,6.99
2018-01-30T02:31:27.520Z,6.96
2018-01-30T02:32:33.236Z,6.97
2018-01-30T02:33:38.950Z,6.92
2018-01-30T02:34:44.687Z,6.91
2018-01-30T02:35:50.402Z,6.92
2018-01-30T02:36:56.163Z,6.90
2018-01-30T02:38:02.646Z,6.93
2018-01-30T02:39:08.353Z,6.92
2018-01-30T02:40:14.845Z,6.93
2018-01-30T02:41:20.555Z,6.93
2018-01-30T02:42:27.101Z,6.94
2018-01-30T02:43:32.842Z,6.93
2018-01-30T02:44:38.579Z,6.95
2018-01-30T02:45:45.060Z,6.99
2018-01-30T02:46:51.542Z,7.01
2018-01-30T02:47:57.288Z,7.01
2018-01-30T02:49:02.781Z,7.00
2018-01-30T02:50:08.265Z,6.98
2018-01-30T02:51:13.431Z,6.98
2018-01-30T02:52:19.194Z,6.97
2018-01-30T02:53:25.392Z,6.97
2018-01-30T02:54:30.242Z,6.97
2018-01-30T02:55:35.952Z,6.95
2018-01-30T02:56:41.030Z,6.93
2018-01-30T02:57:45.870Z,6.92
2018-01-30T02:58:52.398Z,6.93
2018-01-30T02:59:58.155Z,6.90
2018-01-30T03:01:04.646Z,6.89
2018-01-30T03:02:10.386Z,6.89
2018-01-30T03:03:16.122Z,6.90
2018-01-30T03:04:21.894Z,6.89
2018-01-30T03:05:27.624Z,6.89
2018-01-30T03:06:33.340Z,6.88
2018-01-30T03:07:39.175Z,6.87
2018-01-30T03:08:45.674Z,6.89
2018-01-30T03:09:51.512Z,6.90
2018-01-30T03:10:57.246Z,6.89
2018-01-30T03:12:03.012Z,6.87
2018-01-30T03:13:08.905Z,6.86
2018-01-30T03:14:15.417Z,6.85
2018-01-30T03:15:21.165Z,6.87
2018-01-30T03:16:26.903Z,6.90
2018-01-30T03:17:32.634Z,6.90
2018-01-30T03:18:38.427Z,6.89
2018-01-30T03:19:44.909Z,6.86
2018-01-30T03:20:50.646Z,6.87
2018-01-30T03:21:56.375Z,6.86
2018-01-30T03:23:02.093Z,6.84
2018-01-30T03:24:08.900Z,6.83
2018-01-30T03:25:14.840Z,6.81
2018-01-30T03:26:20.599Z,6.82
2018-01-30T03:27:26.335Z,6.80
2018-01-30T03:28:32.065Z,6.78
2018-01-30T03:29:37.785Z,6.78
2018-01-30T03:30:43.532Z,6.78
2018-01-30T03:31:49.303Z,6.76
2018-01-30T03:32:55.037Z,6.75
2018-01-30T03:34:00.759Z,6.76
2018-01-30T03:35:06.479Z,6.78
2018-01-30T03:36:12.985Z,6.78
2018-01-30T03:37:18.828Z,6.79
2018-01-30T03:38:24.552Z,6.78
2018-01-30T03:39:30.296Z,6.77
2018-01-30T03:40:36.042Z,6.78
2018-01-30T03:41:41.762Z,6.76
2018-01-30T03:42:47.504Z,6.75
2018-01-30T03:43:53.250Z,6.73
2018-01-30T03:44:59.042Z,6.75
2018-01-30T03:46:04.776Z,6.76
2018-01-30T03:47:10.522Z,6.79
2018-01-30T03:48:16.281Z,6.79
2018-01-30T03:49:22.024Z,6.79
2018-01-30T03:50:28.563Z,6.79
2018-01-30T03:51:34.291Z,6.83
2018-01-30T03:52:40.375Z,6.85
2018-01-30T03:53:46.144Z,6.89
2018-01-30T03:54:51.878Z,6.92
2018-01-30T03:55:58.374Z,6.95
2018-01-30T03:57:04.111Z,7.00
2018-01-30T03:58:09.846Z,7.04
2018-01-30T03:59:15.603Z,7.09
2018-01-30T04:00:21.335Z,7.09
2018-01-30T04:01:27.066Z,7.10
2018-01-30T04:02:32.819Z,7.11
2018-01-30T04:03:38.631Z,7.10
2018-01-30T04:04:45.150Z,7.11
2018-01-30T04:05:50.642Z,7.09
2018-01-30T04:06:56.451Z,7.09
2018-01-30T04:08:02.288Z,7.12
2018-01-30T04:09:08.016Z,7.16
2018-01-30T04:10:13.758Z,7.19
2018-01-30T04:11:21.400Z,7.21
2018-01-30T04:12:27.143Z,7.24
2018-01-30T04:13:32.957Z,7.29
2018-01-30T04:14:39.134Z,7.23
2018-01-30T04:15:44.898Z,7.20
2018-01-30T04:16:51.178Z,7.20
2018-01-30T04:17:56.915Z,7.22
2018-01-30T04:19:02.643Z,7.21
2018-01-30T04:20:08.183Z,7.23
2018-01-30T04:21:13.944Z,7.25
2018-01-30T04:22:19.653Z,7.29
2018-01-30T04:23:25.395Z,7.30
2018-01-30T04:24:31.112Z,7.33
2018-01-30T04:25:36.850Z,7.34
2018-01-30T04:26:42.599Z,7.35
2018-01-30T04:27:48.324Z,7.33
2018-01-30T04:28:54.082Z,7.32
2018-01-30T04:29:59.849Z,7.31
2018-01-30T04:31:06.078Z,7.25
2018-01-30T04:32:11.593Z,7.25
2018-01-30T04:33:17.325Z,7.31
2018-01-30T04:34:23.074Z,7.34
2018-01-30T04:35:28.885Z,7.34
2018-01-30T04:36:34.612Z,7.35
2018-01-30T04:37:40.049Z,7.33
2018-01-30T04:38:45.760Z,7.32
2018-01-30T04:39:51.495Z,7.32
2018-01-30T04:40:57.235Z,7.31
2018-01-30T04:42:02.968Z,7.29
2018-01-30T04:43:08.731Z,7.32
2018-01-30T04:44:14.450Z,7.34
2018-01-30T04:45:20.412Z,7.37
2018-01-30T04:47:31.004Z,7.36
2018-01-30T04:48:36.747Z,7.33
2018-01-30T04:49:42.594Z,7.29
2018-01-30T04:50:48.323Z,7.23
2018-01-30T04:51:54.062Z,7.15
2018-01-30T04:52:59.582Z,7.10
2018-01-30T04:54:05.345Z,7.05
2018-01-30T04:55:11.082Z,7.03
2018-01-30T04:56:16.822Z,6.98
2018-01-30T04:57:22.546Z,6.95
2018-01-30T04:58:27.393Z,6.87
2018-01-30T04:59:33.163Z,6.82
2018-01-30T05:00:39.649Z,6.75
2018-01-30T05:01:45.414Z,6.69
2018-01-30T05:02:51.154Z,6.63
2018-01-30T05:03:56.905Z,6.62
2018-01-30T05:05:02.640Z,6.59
2018-01-30T05:06:08.366Z,6.59
2018-01-30T05:07:14.106Z,6.58
2018-01-30T05:08:19.535Z,6.59
2018-01-30T05:09:25.907Z,6.59
2018-01-30T05:10:31.648Z,6.55
2018-01-30T05:11:37.391Z,6.52
2018-01-30T05:12:43.140Z,6.49
2018-01-30T05:13:48.888Z,6.43
2018-01-30T05:14:54.640Z,6.36
2018-01-30T05:16:00.404Z,6.32
2018-01-30T05:17:06.893Z,6.32
2018-01-30T05:18:12.628Z,6.28
2018-01-30T05:19:18.364Z,6.23
2018-01-30T05:20:24.125Z,6.20
2018-01-30T05:21:29.888Z,6.20
2018-01-30T05:22:35.631Z,6.20
2018-01-30T05:23:41.360Z,6.18
2018-01-30T05:24:47.089Z,6.20
2018-01-30T05:25:52.620Z,6.22
2018-01-30T05:26:58.382Z,6.24
2018-01-30T05:28:04.139Z,6.25
2018-01-30T05:29:09.852Z,6.27
2018-01-30T05:30:15.702Z,6.28
2018-01-30T05:31:21.445Z,6.29
2018-01-30T05:32:27.224Z,6.30
2018-01-30T05:33:33.747Z,6.28
2018-01-30T05:34:39.486Z,6.30
2018-01-30T05:35:45.219Z,6.35
2018-01-30T05:36:50.985Z,6.33
2018-01-30T05:37:56.738Z,6.33
2018-01-30T05:39:03.122Z,6.37
2018-01-30T05:40:08.871Z,6.37
2018-01-30T05:41:14.584Z,6.36
2018-01-30T05:42:21.066Z,6.39
2018-01-30T05:43:27.209Z,6.40
2018-01-30T05:44:33.701Z,6.44
2018-01-30T05:45:39.430Z,6.42
2018-01-30T05:46:45.144Z,6.45
2018-01-30T05:47:51.650Z,6.48
2018-01-30T05:48:57.401Z,6.49
2018-01-30T05:50:03.165Z,6.52
2018-01-30T05:51:08.893Z,6.55
2018-01-30T05:52:15.407Z,6.55
2018-01-30T05:53:21.231Z,6.52
2018-01-30T05:54:27.907Z,6.52
2018-01-30T05:55:33.642Z,6.54
2018-01-30T05:56:38.755Z,6.53
2018-01-30T05:57:45.244Z,6.56
2018-01-30T05:58:50.955Z,6.53
2018-01-30T05:59:57.487Z,6.51
2018-01-30T06:01:03.261Z,6.49
2018-01-30T06:02:09.747Z,6.42
2018-01-30T06:03:15.503Z,6.42
2018-01-30T06:04:21.247Z,6.39
2018-01-30T06:05:27.003Z,6.37
2018-01-30T06:06:32.724Z,6.34
2018-01-30T06:07:38.460Z,6.27
2018-01-30T06:08:44.225Z,6.20
2018-01-30T06:09:49.973Z,6.17
2018-01-30T06:10:55.873Z,6.17
2018-01-30T06:12:01.608Z,6.13
2018-01-30T06:13:07.432Z,6.16
2018-01-30T06:14:14.167Z,6.15
2018-01-30T06:15:19.892Z,6.07
2018-01-30T06:16:25.646Z,6.03
2018-01-30T06:17:31.379Z,6.00
2018-01-30T06:18:37.128Z,5.98
2018-01-30T06:19:43.052Z,5.97
2018-01-30T06:20:48.773Z,5.92
2018-01-30T06:21:55.308Z,5.93
2018-01-30T06:23:01.040Z,5.90
2018-01-30T06:24:06.770Z,5.88
2018-01-30T06:25:12.507Z,5.83
2018-01-30T06:26:18.238Z,5.79
2018-01-30T06:27:23.983Z,5.79
2018-01-30T06:28:29.735Z,5.74
2018-01-30T06:29:35.469Z,5.69
2018-01-30T06:30:41.207Z,5.67
2018-01-30T06:31:46.991Z,5.68
2018-01-30T06:32:52.046Z,5.65
2018-01-30T06:33:57.822Z,5.59
2018-01-30T06:35:03.561Z,5.57
2018-01-30T06:36:09.300Z,5.59
2018-01-30T06:37:15.070Z,5.52
2018-01-30T06:38:22.330Z,5.50
2018-01-30T06:39:28.056Z,5.46
2018-01-30T06:40:33.802Z,5.48
2018-01-30T06:41:39.539Z,5.45
2018-01-30T06:42:45.265Z,5.40
2018-01-30T06:43:51.022Z,5.38
2018-01-30T06:44:59.870Z,5.36
2018-01-30T06:46:06.688Z,5.36
2018-01-30T06:47:12.435Z,5.35
2018-01-30T06:48:18.613Z,5.36
2018-01-30T06:49:24.710Z,5.35
2018-01-30T06:50:29.686Z,5.36
2018-01-30T06:51:37.543Z,5.36
2018-01-30T06:52:44.200Z,5.33
2018-01-30T06:53:50.218Z,5.31
2018-01-30T06:54:56.631Z,5.30
2018-01-30T06:56:02.476Z,5.31
2018-01-30T06:57:08.451Z,5.28
2018-01-30T06:58:16.926Z,5.30
2018-01-30T06:59:23.461Z,5.27
2018-01-30T07:00:29.203Z,5.26
2018-01-30T07:01:35.009Z,5.24
2018-01-30T07:02:40.946Z,5.26
2018-01-30T07:03:47.437Z,5.26
2018-01-30T07:04:53.173Z,5.27
2018-01-30T07:05:58.931Z,5.34
2018-01-30T07:07:04.640Z,5.40
2018-01-30T07:08:11.128Z,5.36
2018-01-30T07:09:16.869Z,5.38
2018-01-30T07:10:22.611Z,5.38
2018-01-30T07:11:28.049Z,5.42
2018-01-30T07:12:33.766Z,5.46
2018-01-30T07:13:40.263Z,5.49
2018-01-30T07:14:45.988Z,5.52
2018-01-30T07:15:51.721Z,5.52
2018-01-30T07:16:57.488Z,5.52
2018-01-30T07:18:03.208Z,5.48
2018-01-30T07:19:08.927Z,5.49
2018-01-30T07:20:15.443Z,5.45
2018-01-30T07:21:21.161Z,5.45
2018-01-30T07:22:26.971Z,5.51
2018-01-30T07:23:33.498Z,5.50
2018-01-30T07:24:39.255Z,5.52
2018-01-30T07:25:45.006Z,5.51
2018-01-30T07:26:51.510Z,5.51
2018-01-30T07:27:57.256Z,5.51
2018-01-30T07:29:03.003Z,5.49
2018-01-30T07:30:08.735Z,5.52
2018-01-30T07:31:14.476Z,5.51
2018-01-30T07:32:20.218Z,5.50
2018-01-30T07:33:25.968Z,5.53
2018-01-30T07:34:31.980Z,5.53
2018-01-30T07:35:37.812Z,5.54
2018-01-30T07:36:44.313Z,5.54
2018-01-30T07:37:50.051Z,5.56
2018-01-30T07:38:55.807Z,5.60
2018-01-30T07:40:01.543Z,5.60
2018-01-30T07:41:07.257Z,5.62
2018-01-30T07:42:12.989Z,5.61
2018-01-30T07:43:18.733Z,5.58
2018-01-30T07:44:24.494Z,5.60
2018-01-30T07:45:30.212Z,5.63
2018-01-30T07:46:35.952Z,5.64
2018-01-30T07:47:41.679Z,5.68
2018-01-30T07:48:48.165Z,5.71
2018-01-30T07:49:53.911Z,5.70
2018-01-30T07:50:59.666Z,5.75
2018-01-30T07:52:05.381Z,5.76
2018-01-30T07:53:11.119Z,5.68
2018-01-30T07:54:16.850Z,5.66
2018-01-30T07:55:22.686Z,5.69
2018-01-30T07:56:29.191Z,5.71
2018-01-30T07:57:34.918Z,5.70
2018-01-30T07:58:40.654Z,5.70
2018-01-30T07:59:45.557Z,5.71
2018-01-30T08:00:51.323Z,5.72
2018-01-30T08:01:57.043Z,5.76
2018-01-30T08:03:02.786Z,5.77
2018-01-30T08:04:08.618Z,5.77
2018-01-30T08:05:14.339Z,5.78
2018-01-30T08:06:20.300Z,5.80
2018-01-30T08:07:26.804Z,5.79
2018-01-30T08:08:32.547Z,5.78
2018-01-30T08:09:38.264Z,5.80
2018-01-30T08:10:44.024Z,5.90
2018-01-30T08:11:49.774Z,5.96
2018-01-30T08:12:55.553Z,5.96
2018-01-30T08:14:02.051Z,6.00
2018-01-30T08:15:07.438Z,6.03
2018-01-30T08:16:13.238Z,6.05
2018-01-30T08:17:18.974Z,6.10
2018-01-30T08:18:25.293Z,6.11
2018-01-30T08:19:31.772Z,6.14
2018-01-30T08:20:37.502Z,6.18
2018-01-30T08:21:43.215Z,6.20
2018-01-30T08:22:48.956Z,6.23
2018-01-30T08:23:54.678Z,6.27
2018-01-30T08:25:00.428Z,6.33
2018-01-30T08:26:06.144Z,6.35
2018-01-30T08:27:11.913Z,6.38
2018-01-30T08:28:17.665Z,6.36
2018-01-30T08:29:24.191Z,6.37
2018-01-30T08:30:29.925Z,6.39
2018-01-30T08:31:35.644Z,6.40
2018-01-30T08:32:41.504Z,6.42
2018-01-30T08:33:47.263Z,6.48
2018-01-30T08:34:53.045Z,6.47
2018-01-30T08:35:59.612Z,6.48
2018-01-30T08:37:06.110Z,6.52
2018-01-30T08:38:11.824Z,6.54
2018-01-30T08:39:17.593Z,6.55
2018-01-30T08:40:23.321Z,6.59
2018-01-30T08:41:29.049Z,6.67
2018-01-30T08:42:34.759Z,6.78
2018-01-30T08:43:41.262Z,6.85
2018-01-30T08:44:47.008Z,6.92
2018-01-30T08:45:52.740Z,6.98
2018-01-30T08:46:58.474Z,7.04
2018-01-30T08:48:04.207Z,7.15
2018-01-30T08:49:09.940Z,7.35
2018-01-30T08:50:16.482Z,7.60
2018-01-30T08:51:23.288Z,7.85
2018-01-30T08:52:29.018Z,8.11
2018-01-30T08:53:34.759Z,8.39
2018-01-30T08:54:40.499Z,8.67
2018-01-30T08:55:46.255Z,8.93
2018-01-30T08:56:51.992Z,9.16
2018-01-30T08:57:57.737Z,9.32
2018-01-30T08:59:03.480Z,9.49
2018-01-30T09:00:09.204Z,9.71
2018-01-30T09:01:14.963Z,9.92
2018-01-30T09:02:20.704Z,10.17
2018-01-30T09:03:26.436Z,10.39
2018-01-30T09:04:32.182Z,10.53
2018-01-30T09:05:37.932Z,10.65
2018-01-30T09:06:43.710Z,10.88
2018-01-30T09:07:49.437Z,11.03
2018-01-30T09:08:55.188Z,11.29
2018-01-30T09:10:00.924Z,11.44
2018-01-30T09:11:06.693Z,11.47
2018-01-30T09:12:12.450Z,11.52
2018-01-30T09:13:18.264Z,11.61
2018-01-30T09:14:24.034Z,11.65
2018-01-30T09:15:29.785Z,11.70
2018-01-30T09:16:35.521Z,11.81
2018-01-30T09:17:40.620Z,12.02
2018-01-30T09:18:47.124Z,11.98
2018-01-30T09:19:52.848Z,12.04
2018-01-30T09:20:58.596Z,12.13
2018-01-30T09:22:04.376Z,12.22
2018-01-30T09:23:10.124Z,12.22
2018-01-30T09:24:15.874Z,12.43
2018-01-30T09:25:21.629Z,12.56
2018-01-30T09:26:27.356Z,12.62
2018-01-30T09:27:33.147Z,12.62
2018-01-30T09:28:38.900Z,12.77
2018-01-30T09:29:44.640Z,12.91
2018-01-30T09:30:50.369Z,12.98
2018-01-30T09:31:56.096Z,13.00
2018-01-30T09:33:01.514Z,13.02
2018-01-30T09:34:08.071Z,13.00
2018-01-30T09:35:14.574Z,13.02
2018-01-30T09:36:20.322Z,12.96
2018-01-30T09:37:26.180Z,13.08
2018-01-30T09:38:31.612Z,13.20
2018-01-30T09:39:37.504Z,13.30
2018-01-30T09:40:44.028Z,13.41
2018-01-30T09:41:49.787Z,13.48
2018-01-30T09:42:56.328Z,13.45
2018-01-30T09:44:01.608Z,13.23
2018-01-30T09:45:07.377Z,13.19
2018-01-30T09:46:13.114Z,13.10
2018-01-30T09:47:18.859Z,13.08
2018-01-30T09:48:24.601Z,13.15
2018-01-30T09:49:30.332Z,13.32
2018-01-30T09:50:36.107Z,13.30
2018-01-30T09:51:41.832Z,13.34
2018-01-30T09:52:47.596Z,13.50
2018-01-30T09:53:53.332Z,13.50
2018-01-30T09:54:59.075Z,13.36
2018-01-30T09:56:04.842Z,13.37
2018-01-30T09:57:11.417Z,13.38
2018-01-30T09:58:17.391Z,13.34
2018-01-30T09:59:23.124Z,13.35
2018-01-30T10:00:29.153Z,13.47
2018-01-30T10:01:34.936Z,13.51
2018-01-30T10:02:40.931Z,13.61
2018-01-30T10:03:47.451Z,13.55
2018-01-30T10:04:53.203Z,13.33
2018-01-30T10:05:58.942Z,13.28
2018-01-30T10:07:04.704Z,13.23
2018-01-30T10:08:11.199Z,13.16
2018-01-30T10:09:16.286Z,13.22
2018-01-30T10:10:22.786Z,13.14
2018-01-30T10:11:28.534Z,13.02
2018-01-30T10:12:34.302Z,12.97
2018-01-30T10:13:40.063Z,12.75
2018-01-30T10:14:45.937Z,12.76
2018-01-30T10:15:51.693Z,12.82
2018-01-30T10:16:57.424Z,12.88
2018-01-30T10:18:03.186Z,12.96
2018-01-30T10:19:08.611Z,12.94
2018-01-30T10:20:14.050Z,12.78
2018-01-30T10:21:19.784Z,12.63
2018-01-30T10:22:25.532Z,12.57
2018-01-30T10:23:31.330Z,12.42
2018-01-30T10:24:37.619Z,12.23
2018-01-30T10:25:43.362Z,12.19
2018-01-30T10:26:49.099Z,12.18
2018-01-30T10:27:54.838Z,12.05
2018-01-30T10:29:00.620Z,12.10
2018-01-30T10:30:05.527Z,12.18
2018-01-30T10:31:11.255Z,12.13
2018-01-30T10:32:16.983Z,12.05
2018-01-30T10:33:22.744Z,12.04
2018-01-30T10:34:28.641Z,12.13
2018-01-30T10:35:33.712Z,12.18
2018-01-30T10:36:40.213Z,12.08
2018-01-30T10:37:45.956Z,11.98
2018-01-30T10:38:52.505Z,11.92
2018-01-30T10:39:59.062Z,11.89
2018-01-30T10:41:06.371Z,11.79
2018-01-30T10:42:12.124Z,11.72
2018-01-30T10:43:18.616Z,11.74
2018-01-30T10:44:24.376Z,11.77
2018-01-30T10:45:30.489Z,11.80
2018-01-30T10:46:36.232Z,11.73
2018-01-30T10:47:41.973Z,11.72
2018-01-30T10:48:47.743Z,11.71
2018-01-30T10:49:53.490Z,11.75
2018-01-30T10:50:59.056Z,11.76
2018-01-30T10:52:05.679Z,11.63
2018-01-30T10:53:11.403Z,11.54
2018-01-30T10:54:17.147Z,11.50
2018-01-30T10:55:22.892Z,11.41
2018-01-30T10:56:28.670Z,11.35
2018-01-30T10:57:33.515Z,11.30
2018-01-30T10:58:40.008Z,11.20
2018-01-30T10:59:45.869Z,11.23
2018-01-30T11:00:51.424Z,11.28
2018-01-30T11:01:57.190Z,11.41
2018-01-30T11:03:03.996Z,11.41
2018-01-30T11:04:09.097Z,11.34
2018-01-30T11:05:15.601Z,11.27
2018-01-30T11:06:21.343Z,11.32
2018-01-30T11:07:27.100Z,11.32
2018-01-30T11:08:32.845Z,11.25
2018-01-30T11:09:38.649Z,11.21
2018-01-30T11:10:45.321Z,11.10
2018-01-30T11:11:51.071Z,10.98
2018-01-30T11:12:55.979Z,10.95
2018-01-30T11:14:01.713Z,10.97
2018-01-30T11:15:07.595Z,10.98
2018-01-30T11:16:13.355Z,10.94
2018-01-30T11:17:18.769Z,10.79
2018-01-30T11:18:24.552Z,10.71
2018-01-30T11:19:30.295Z,10.69
2018-01-30T11:20:36.029Z,10.67
2018-01-30T11:21:42.524Z,10.59
2018-01-30T11:22:48.265Z,10.55
2018-01-30T11:23:54.047Z,10.53
2018-01-30T11:24:59.774Z,10.54
2018-01-30T11:26:05.519Z,10.53
2018-01-30T11:27:11.262Z,10.48
2018-01-30T11:28:16.995Z,10.56
2018-01-30T11:29:23.528Z,10.55
2018-01-30T11:30:29.314Z,10.65
2018-01-30T11:31:34.399Z,10.63
2018-01-30T11:32:40.128Z,10.55
2018-01-30T11:33:45.974Z,10.51
2018-01-30T11:34:51.745Z,10.54
2018-01-30T11:35:57.499Z,10.67
2018-01-30T11:37:03.277Z,10.69
2018-01-30T11:38:09.016Z,10.71
2018-01-30T11:39:14.752Z,10.77
2018-01-30T11:40:21.269Z,10.72
2018-01-30T11:41:27.013Z,10.68
2018-01-30T11:42:32.792Z,10.72
2018-01-30T11:43:38.621Z,10.83
2018-01-30T11:44:45.135Z,10.91
2018-01-30T11:45:50.890Z,10.89
2018-01-30T11:46:56.646Z,10.84
2018-01-30T11:48:03.900Z,10.84
2018-01-30T11:49:09.663Z,10.77
2018-01-30T11:50:15.402Z,10.69
2018-01-30T11:51:21.194Z,10.61
2018-01-30T11:52:26.953Z,10.57
2018-01-30T11:53:32.741Z,10.55
2018-01-30T11:54:38.463Z,10.61
2018-01-30T11:55:44.200Z,10.59
2018-01-30T11:56:50.171Z,10.55
2018-01-30T11:57:55.946Z,10.59
2018-01-30T11:59:01.698Z,10.60
2018-01-30T12:00:07.229Z,10.58
2018-01-30T12:01:12.959Z,10.56
2018-01-30T12:02:18.990Z,10.56
2018-01-30T12:03:25.522Z,10.44
2018-01-30T12:04:31.279Z,10.43
2018-01-30T12:05:37.022Z,10.47
2018-01-30T12:06:42.769Z,10.50
2018-01-30T12:07:48.563Z,10.48
2018-01-30T12:08:54.492Z,10.50
2018-01-30T12:10:00.219Z,10.44
2018-01-30T12:11:05.966Z,10.50
2018-01-30T12:12:11.697Z,10.51
2018-01-30T12:13:18.239Z,10.58
2018-01-30T12:14:23.962Z,10.58
2018-01-30T12:15:29.694Z,10.52
2018-01-30T12:16:35.489Z,10.59
2018-01-30T12:17:41.243Z,10.66
2018-01-30T12:18:46.669Z,10.62
2018-01-30T12:19:52.505Z,10.58
2018-01-30T12:20:58.226Z,10.60
2018-01-30T12:22:04.738Z,10.64
2018-01-30T12:23:10.471Z,10.75
2018-01-30T12:24:16.222Z,10.81
2018-01-30T12:25:21.955Z,10.88
2018-01-30T12:26:27.709Z,10.99
2018-01-30T12:27:33.725Z,11.09
2018-01-30T12:28:40.238Z,11.18
2018-01-30T12:29:45.996Z,11.22
2018-01-30T12:30:52.505Z,11.23
2018-01-30T12:31:58.251Z,11.21
2018-01-30T12:33:03.989Z,11.26
2018-01-30T12:34:09.754Z,11.22
2018-01-30T12:35:15.556Z,11.18
2018-01-30T12:36:21.311Z,11.22
2018-01-30T12:37:27.063Z,11.21
2018-01-30T12:38:32.818Z,11.14
2018-01-30T12:39:38.574Z,11.21
2018-01-30T12:40:44.351Z,11.28
2018-01-30T12:41:51.014Z,11.35
2018-01-30T12:42:56.763Z,11.36
2018-01-30T12:44:02.488Z,11.41
2018-01-30T12:45:09.052Z,11.45
2018-01-30T12:46:14.821Z,11.36
2018-01-30T12:47:21.037Z,11.41
2018-01-30T12:48:27.551Z,11.41
2018-01-30T12:49:33.360Z,11.46
2018-01-30T12:50:40.038Z,11.48
2018-01-30T12:51:45.811Z,11.50
2018-01-30T12:52:51.595Z,11.53
2018-01-30T12:53:56.441Z,11.56
2018-01-30T12:55:02.207Z,11.51
2018-01-30T12:56:08.053Z,11.48
2018-01-30T12:57:13.931Z,11.59
2018-01-30T12:58:20.508Z,11.64
2018-01-30T12:59:26.379Z,11.54
2018-01-30T13:00:32.130Z,11.53
2018-01-30T13:01:37.941Z,11.52
2018-01-30T13:02:43.845Z,11.64
2018-01-30T13:03:49.592Z,11.71
2018-01-30T13:04:55.323Z,11.68
2018-01-30T13:06:01.049Z,11.62
2018-01-30T13:07:06.801Z,11.52
2018-01-30T13:08:12.618Z,11.58
2018-01-30T13:09:18.345Z,11.58
2018-01-30T13:10:24.149Z,11.54
2018-01-30T13:11:29.878Z,11.61
2018-01-30T13:12:35.624Z,11.60
2018-01-30T13:13:42.186Z,11.61
2018-01-30T13:14:47.924Z,11.65
2018-01-30T13:15:52.785Z,11.66
2018-01-30T13:16:58.534Z,11.64
2018-01-30T13:18:04.270Z,11.66
2018-01-30T13:19:10.161Z,11.72
2018-01-30T13:20:15.898Z,11.75
2018-01-30T13:21:21.638Z,11.77
2018-01-30T13:22:27.427Z,11.74
2018-01-30T13:23:33.191Z,11.69
2018-01-30T13:24:38.964Z,11.67
2018-01-30T13:25:44.707Z,11.67
2018-01-30T13:26:50.469Z,11.57
2018-01-30T13:27:56.777Z,11.52
2018-01-30T13:29:02.589Z,11.37
2018-01-30T13:30:08.595Z,11.27
2018-01-30T13:31:14.325Z,11.33
2018-01-30T13:32:20.060Z,11.32
2018-01-30T13:33:25.142Z,11.34
2018-01-30T13:34:30.877Z,11.34
2018-01-30T13:35:37.415Z,11.26
2018-01-30T13:36:43.168Z,11.18
2018-01-30T13:37:49.683Z,11.23
2018-01-30T13:38:55.413Z,11.27
2018-01-30T13:40:00.939Z,11.30
2018-01-30T13:41:06.780Z,11.39
2018-01-30T13:42:13.480Z,11.47
2018-01-30T13:43:19.244Z,11.50
2018-01-30T13:44:24.998Z,11.60
2018-01-30T13:45:31.519Z,11.62
2018-01-30T13:46:36.950Z,11.62
2018-01-30T13:47:42.726Z,11.57
2018-01-30T13:48:49.241Z,11.59
2018-01-30T13:49:54.959Z,11.56
2018-01-30T13:51:00.788Z,11.58
2018-01-30T13:52:06.557Z,11.54
2018-01-30T13:53:12.288Z,11.55
2018-01-30T13:54:18.262Z,11.50
2018-01-30T13:55:24.008Z,11.50
2018-01-30T13:56:29.748Z,11.39
2018-01-30T13:57:35.519Z,11.30
2018-01-30T13:58:41.249Z,11.30
2018-01-30T13:59:46.999Z,11.20
2018-01-30T14:00:52.797Z,11.10
2018-01-30T14:01:58.557Z,11.04
2018-01-30T14:03:04.532Z,11.01
2018-01-30T14:04:11.110Z,11.04
2018-01-30T14:05:17.750Z,11.03
2018-01-30T14:06:23.480Z,11.12
2018-01-30T14:07:29.236Z,11.09
2018-01-30T14:08:35.158Z,10.98
2018-01-30T14:09:41.537Z,10.84
2018-01-30T14:10:48.030Z,10.79
2018-01-30T14:11:53.764Z,10.70
2018-01-30T14:12:59.515Z,10.58
2018-01-30T14:14:05.510Z,10.52
2018-01-30T14:15:11.252Z,10.45
2018-01-30T14:16:16.983Z,10.46
2018-01-30T14:17:22.772Z,10.44
2018-01-30T14:18:28.518Z,10.50
2018-01-30T14:19:34.267Z,10.38
2018-01-30T14:20:40.032Z,10.32
2018-01-30T14:21:45.791Z,10.27
2018-01-30T14:22:51.534Z,10.27
2018-01-30T14:23:57.306Z,10.31
2018-01-30T14:25:03.907Z,10.35
2018-01-30T14:26:09.645Z,10.36
2018-01-30T14:27:15.404Z,10.39